Terminal Aerodrome Forecast
Issued by NWS

Home | Current Version | Previous Version | Text Only | Print | Product List | Glossary On
Versions: 1 2 3 4 5 6 7 8 9 10 11 12 13 14 15 16 17 18 19 20 21
000
FTUS46 KSEW 242300
TAFBFI
TAF
KBFI 242330Z 2500/2524 30005KT P6SM OVC120
     FM250400 01008KT P6SM -RA OVC080
     FM250700 05006KT P6SM -RA OVC040
     FM251300 07006KT 4SM -RA BR OVC016
     FM251800 13006KT P6SM -RA BKN023 OVC035=

USA.gov is the U.S. government's official web portal to all federal, state and local government web resources and services.